sensor_id;sensor_type;location;lat;lon;timestamp;pressure;altitude;pressure_sealevel;temperature;humidity
13209;BME280;6669;42.678;23.332;2022-10-30T00:00:35;95298.22;;;10.03;100.00
13209;BME280;6669;42.678;23.332;2022-10-30T00:03:03;95293.53;;;10.06;100.00
13209;BME280;6669;42.678;23.332;2022-10-30T00:05:32;95292.25;;;10.10;100.00
13209;BME280;6669;42.678;23.332;2022-10-30T00:07:59;95295.22;;;10.15;100.00
13209;BME280;6669;42.678;23.332;2022-10-30T00:10:28;95290.09;;;10.24;100.00
13209;BME280;6669;42.678;23.332;2022-10-30T00:12:55;95286.97;;;10.20;100.00
13209;BME280;6669;42.678;23.332;2022-10-30T00:15:23;95293.25;;;10.09;100.00
13209;BME280;6669;42.678;23.332;2022-10-30T00:17:53;95294.22;;;10.08;100.00
13209;BME280;6669;42.678;23.332;2022-10-30T00:20:21;95294.44;;;9.97;100.00
13209;BME280;6669;42.678;23.332;2022-10-30T00:22:49;95285.63;;;9.90;100.00
13209;BME280;6669;42.678;23.332;2022-10-30T00:25:17;95285.88;;;9.78;100.00
13209;BME280;6669;42.678;23.332;2022-10-30T00:27:45;95290.25;;;9.78;100.00
13209;BME280;6669;42.678;23.332;2022-10-30T00:30:13;95282.75;;;9.75;100.00
13209;BME280;6669;42.678;23.332;2022-10-30T00:32:41;95286.34;;;9.74;100.00
13209;BME280;6669;42.678;23.332;2022-10-30T00:35:10;95285.66;;;9.72;100.00
13209;BME280;6669;42.678;23.332;2022-10-30T00:37:38;95284.25;;;9.59;100.00
13209;BME280;6669;42.678;23.332;2022-10-30T00:40:13;95284.03;;;9.53;100.00
13209;BME280;6669;42.678;23.332;2022-10-30T00:42:41;95282.72;;;9.48;100.00
13209;BME280;6669;42.678;23.332;2022-10-30T00:45:10;95286.06;;;9.41;100.00
13209;BME280;6669;42.678;23.332;2022-10-30T00:47:41;95282.03;;;9.46;100.00
13209;BME280;6669;42.678;23.332;2022-10-30T00:50:15;95281.38;;;9.44;100.00
13209;BME280;6669;42.678;23.332;2022-10-30T00:52:48;95277.81;;;9.45;100.00
13209;BME280;6669;42.678;23.332;2022-10-30T00:55:21;95281.22;;;9.46;100.00
13209;BME280;6669;42.678;23.332;2022-10-30T00:57:52;95280.41;;;9.45;100.00
13209;BME280;6669;42.678;23.332;2022-10-30T01:00:21;95277.22;;;9.33;100.00
13209;BME280;6669;42.678;23.332;2022-10-30T01:02:51;95265.13;;;9.24;100.00
13209;BME280;6669;42.678;23.332;2022-10-30T01:05:22;95255.28;;;9.28;100.00
13209;BME280;6669;42.678;23.332;2022-10-30T01:07:51;95262.44;;;9.16;100.00
13209;BME280;6669;42.678;23.332;2022-10-30T01:10:20;95240.97;;;9.06;100.00
13209;BME280;6669;42.678;23.332;2022-10-30T01:12:49;95242.28;;;9.10;100.00
13209;BME280;6669;42.678;23.332;2022-10-30T01:15:23;95237.56;;;8.87;100.00
13209;BME280;6669;42.678;23.332;2022-10-30T01:18:13;95229.41;;;8.82;100.00
13209;BME280;6669;42.678;23.332;2022-10-30T01:21:08;95234.50;;;8.92;100.00
13209;BME280;6669;42.678;23.332;2022-10-30T01:23:47;95232.81;;;9.00;100.00
13209;BME280;6669;42.678;23.332;2022-10-30T01:26:26;95225.56;;;9.04;100.00
13209;BME280;6669;42.678;23.332;2022-10-30T01:29:11;95219.78;;;8.92;100.00
13209;BME280;6669;42.678;23.332;2022-10-30T01:31:50;95228.47;;;9.01;100.00
13209;BME280;6669;42.678;23.332;2022-10-30T01:34:30;95229.25;;;9.02;100.00
13209;BME280;6669;42.678;23.332;2022-10-30T01:37:06;95228.66;;;8.90;100.00
13209;BME280;6669;42.678;23.332;2022-10-30T01:39:38;95220.41;;;8.76;100.00
13209;BME280;6669;42.678;23.332;2022-10-30T01:42:09;95223.16;;;8.75;100.00
13209;BME280;6669;42.678;23.332;2022-10-30T01:44:40;95221.00;;;8.70;100.00
13209;BME280;6669;42.678;23.332;2022-10-30T01:47:17;95218.16;;;8.63;100.00
13209;BME280;6669;42.678;23.332;2022-10-30T01:50:16;95224.03;;;8.65;100.00
13209;BME280;6669;42.678;23.332;2022-10-30T01:52:54;95216.34;;;8.74;100.00
13209;BME280;6669;42.678;23.332;2022-10-30T01:55:32;95214.84;;;8.71;100.00
13209;BME280;6669;42.678;23.332;2022-10-30T01:58:08;95219.44;;;8.77;100.00
13209;BME280;6669;42.678;23.332;2022-10-30T02:00:40;95213.84;;;8.82;100.00
13209;BME280;6669;42.678;23.332;2022-10-30T02:03:10;95224.59;;;8.87;100.00
13209;BME280;6669;42.678;23.332;2022-10-30T02:05:41;95220.41;;;8.76;100.00
13209;BME280;6669;42.678;23.332;2022-10-30T02:08:11;95205.66;;;8.77;100.00
13209;BME280;6669;42.678;23.332;2022-10-30T02:10:40;95209.09;;;8.77;100.00
13209;BME280;6669;42.678;23.332;2022-10-30T02:13:09;95205.66;;;8.77;100.00
13209;BME280;6669;42.678;23.332;2022-10-30T02:15:37;95209.09;;;8.77;100.00
13209;BME280;6669;42.678;23.332;2022-10-30T02:18:05;95203.22;;;8.75;100.00
13209;BME280;6669;42.678;23.332;2022-10-30T02:20:36;95195.59;;;8.74;100.00
13209;BME280;6669;42.678;23.332;2022-10-30T02:23:04;95196.84;;;8.70;100.00
13209;BME280;6669;42.678;23.332;2022-10-30T02:25:34;95195.13;;;8.60;100.00
13209;BME280;6669;42.678;23.332;2022-10-30T02:28:02;95197.59;;;8.62;100.00
13209;BME280;6669;42.678;23.332;2022-10-30T02:30:30;95200.97;;;8.62;100.00
13209;BME280;6669;42.678;23.332;2022-10-30T02:32:58;95200.97;;;8.62;100.00
13209;BME280;6669;42.678;23.332;2022-10-30T02:35:28;95200.72;;;8.65;100.00
13209;BME280;6669;42.678;23.332;2022-10-30T02:37:57;95198.16;;;8.56;100.00
13209;BME280;6669;42.678;23.332;2022-10-30T02:40:26;95199.66;;;8.58;100.00
13209;BME280;6669;42.678;23.332;2022-10-30T02:42:54;95201.41;;;8.58;100.00
13209;BME280;6669;42.678;23.332;2022-10-30T02:45:22;95198.25;;;8.64;100.00
13209;BME280;6669;42.678;23.332;2022-10-30T02:47:50;95200.31;;;8.60;100.00
13209;BME280;6669;42.678;23.332;2022-10-30T02:50:17;95195.81;;;8.62;100.00
13209;BME280;6669;42.678;23.332;2022-10-30T02:52:45;95203.31;;;8.65;100.00
13209;BME280;6669;42.678;23.332;2022-10-30T02:55:15;95199.88;;;8.65;100.00
13209;BME280;6669;42.678;23.332;2022-10-30T02:57:43;95202.84;;;8.70;100.00
13209;BME280;6669;42.678;23.332;2022-10-30T03:00:12;95204.47;;;8.71;100.00
13209;BME280;6669;42.678;23.332;2022-10-30T03:02:40;95208.72;;;8.72;100.00
13209;BME280;6669;42.678;23.332;2022-10-30T03:05:08;95212.78;;;8.75;100.00
13209;BME280;6669;42.678;23.332;2022-10-30T03:07:36;95214.41;;;8.76;100.00
13209;BME280;6669;42.678;23.332;2022-10-30T03:10:04;95221.81;;;8.71;100.00
13209;BME280;6669;42.678;23.332;2022-10-30T03:12:33;95226.69;;;8.74;100.00
13209;BME280;6669;42.678;23.332;2022-10-30T03:15:01;95225.13;;;8.63;100.00
13209;BME280;6669;42.678;23.332;2022-10-30T03:17:29;95222.22;;;8.48;100.00
13209;BME280;6669;42.678;23.332;2022-10-30T03:19:57;95233.91;;;8.42;100.00
13209;BME280;6669;42.678;23.332;2022-10-30T03:22:25;95231.66;;;8.29;100.00
13209;BME280;6669;42.678;23.332;2022-10-30T03:24:53;95221.44;;;8.28;100.00
13209;BME280;6669;42.678;23.332;2022-10-30T03:27:21;95227.00;;;8.33;100.00
13209;BME280;6669;42.678;23.332;2022-10-30T03:29:50;95218.06;;;8.27;100.00
13209;BME280;6669;42.678;23.332;2022-10-30T03:32:18;95208.50;;;8.28;100.00
13209;BME280;6669;42.678;23.332;2022-10-30T03:34:46;95204.94;;;8.29;100.00
13209;BME280;6669;42.678;23.332;2022-10-30T03:37:14;95217.34;;;8.35;100.00
13209;BME280;6669;42.678;23.332;2022-10-30T03:39:42;95219.84;;;8.45;100.00
13209;BME280;6669;42.678;23.332;2022-10-30T03:42:10;95224.97;;;8.37;100.00
13209;BME280;6669;42.678;23.332;2022-10-30T03:44:37;95219.94;;;8.35;100.00
13209;BME280;6669;42.678;23.332;2022-10-30T03:47:07;95218.44;;;8.32;100.00
13209;BME280;6669;42.678;23.332;2022-10-30T03:49:34;95209.03;;;8.31;100.00
13209;BME280;6669;42.678;23.332;2022-10-30T03:52:02;95216.41;;;8.26;100.00
13209;BME280;6669;42.678;23.332;2022-10-30T03:54:30;95216.66;;;8.33;100.00
13209;BME280;6669;42.678;23.332;2022-10-30T03:56:58;95206.47;;;8.22;100.00
13209;BME280;6669;42.678;23.332;2022-10-30T03:59:26;95209.91;;;8.22;100.00
13209;BME280;6669;42.678;23.332;2022-10-30T04:01:54;95206.50;;;8.12;100.00
13209;BME280;6669;42.678;23.332;2022-10-30T04:04:24;95203.44;;;7.98;100.00
13209;BME280;6669;42.678;23.332;2022-10-30T04:06:51;95201.25;;;7.94;100.00
13209;BME280;6669;42.678;23.332;2022-10-30T04:09:19;95195.03;;;7.87;100.00
13209;BME280;6669;42.678;23.332;2022-10-30T04:11:47;95200.06;;;7.88;100.00
13209;BME280;6669;42.678;23.332;2022-10-30T04:14:15;95194.34;;;7.84;100.00
13209;BME280;6669;42.678;23.332;2022-10-30T04:16:43;95209.09;;;7.74;100.00
13209;BME280;6669;42.678;23.332;2022-10-30T04:19:11;95202.56;;;7.70;100.00
13209;BME280;6669;42.678;23.332;2022-10-30T04:21:40;95203.38;;;7.61;100.00
13209;BME280;6669;42.678;23.332;2022-10-30T04:24:09;95204.31;;;7.60;100.00
13209;BME280;6669;42.678;23.332;2022-10-30T04:26:37;95193.97;;;7.60;100.00
13209;BME280;6669;42.678;23.332;2022-10-30T04:29:05;95197.16;;;7.53;100.00
13209;BME280;6669;42.678;23.332;2022-10-30T04:31:32;95192.53;;;7.47;100.00
13209;BME280;6669;42.678;23.332;2022-10-30T04:34:00;95184.91;;;7.46;100.00
13209;BME280;6669;42.678;23.332;2022-10-30T04:36:28;95197.31;;;7.32;100.00
13209;BME280;6669;42.678;23.332;2022-10-30T04:39:00;95197.72;;;7.18;100.00
13209;BME280;6669;42.678;23.332;2022-10-30T04:41:28;95204.53;;;7.09;100.00
13209;BME280;6669;42.678;23.332;2022-10-30T04:43:57;95196.06;;;7.07;100.00
13209;BME280;6669;42.678;23.332;2022-10-30T04:46:25;95198.53;;;7.09;100.00
13209;BME280;6669;42.678;23.332;2022-10-30T04:48:54;95207.50;;;6.95;100.00
13209;BME280;6669;42.678;23.332;2022-10-30T04:51:23;95206.69;;;6.94;100.00
13209;BME280;6669;42.678;23.332;2022-10-30T04:53:50;95202.06;;;6.88;100.00
13209;BME280;6669;42.678;23.332;2022-10-30T04:56:21;95209.16;;;6.86;100.00
13209;BME280;6669;42.678;23.332;2022-10-30T04:58:49;95207.63;;;6.93;100.00
13209;BME280;6669;42.678;23.332;2022-10-30T05:01:18;95208.59;;;6.92;100.00
13209;BME280;6669;42.678;23.332;2022-10-30T05:03:46;95206.41;;;6.97;100.00
13209;BME280;6669;42.678;23.332;2022-10-30T05:06:21;95207.78;;;6.92;100.00
13209;BME280;6669;42.678;23.332;2022-10-30T05:08:50;95212.13;;;6.91;100.00
13209;BME280;6669;42.678;23.332;2022-10-30T05:11:18;95211.44;;;6.89;100.00
13209;BME280;6669;42.678;23.332;2022-10-30T05:13:48;95213.50;;;6.95;100.00
13209;BME280;6669;42.678;23.332;2022-10-30T05:16:16;95205.59;;;6.97;100.00
13209;BME280;6669;42.678;23.332;2022-10-30T05:18:43;95217.31;;;7.11;100.00
13209;BME280;6669;42.678;23.332;2022-10-30T05:21:11;95215.97;;;7.07;100.00
13209;BME280;6669;42.678;23.332;2022-10-30T05:23:39;95214.03;;;7.18;100.00
13209;BME280;6669;42.678;23.332;2022-10-30T05:26:07;95217.97;;;7.23;100.00
13209;BME280;6669;42.678;23.332;2022-10-30T05:28:35;95215.94;;;7.26;100.00
13209;BME280;6669;42.678;23.332;2022-10-30T05:31:04;95222.75;;;7.37;100.00
13209;BME280;6669;42.678;23.332;2022-10-30T05:33:32;95220.28;;;7.45;100.00
13209;BME280;6669;42.678;23.332;2022-10-30T05:36:00;95224.66;;;7.45;100.00
13209;BME280;6669;42.678;23.332;2022-10-30T05:38:28;95222.88;;;7.55;100.00
13209;BME280;6669;42.678;23.332;2022-10-30T05:40:56;95223.66;;;7.65;100.00
13209;BME280;6669;42.678;23.332;2022-10-30T05:43:24;95229.09;;;7.72;100.00
13209;BME280;6669;42.678;23.332;2022-10-30T05:45:52;95233.88;;;7.77;100.00
13209;BME280;6669;42.678;23.332;2022-10-30T05:48:21;95230.84;;;7.81;100.00
13209;BME280;6669;42.678;23.332;2022-10-30T05:50:50;95220.38;;;7.83;100.00
13209;BME280;6669;42.678;23.332;2022-10-30T05:53:18;95220.50;;;7.81;100.00
13209;BME280;6669;42.678;23.332;2022-10-30T05:55:46;95222.53;;;7.88;100.00
13209;BME280;6669;42.678;23.332;2022-10-30T05:58:14;95223.22;;;7.90;100.00
13209;BME280;6669;42.678;23.332;2022-10-30T06:00:42;95221.69;;;7.97;100.00
13209;BME280;6669;42.678;23.332;2022-10-30T06:03:11;95234.88;;;8.13;100.00
13209;BME280;6669;42.678;23.332;2022-10-30T06:05:44;95223.91;;;8.19;100.00
13209;BME280;6669;42.678;23.332;2022-10-30T06:08:13;95215.06;;;8.22;100.00
13209;BME280;6669;42.678;23.332;2022-10-30T06:10:42;95213.00;;;8.26;100.00
13209;BME280;6669;42.678;23.332;2022-10-30T06:13:10;95228.91;;;8.31;100.00
13209;BME280;6669;42.678;23.332;2022-10-30T06:15:38;95223.34;;;8.26;100.00
13209;BME280;6669;42.678;23.332;2022-10-30T06:18:06;95227.88;;;8.24;100.00
13209;BME280;6669;42.678;23.332;2022-10-30T06:20:34;95223.44;;;8.06;100.00
13209;BME280;6669;42.678;23.332;2022-10-30T06:23:04;95217.00;;;8.10;100.00
13209;BME280;6669;42.678;23.332;2022-10-30T06:25:34;95218.34;;;8.14;100.00
13209;BME280;6669;42.678;23.332;2022-10-30T06:28:07;95225.28;;;8.24;100.00
13209;BME280;6669;42.678;23.332;2022-10-30T06:30:36;95228.25;;;8.29;100.00
13209;BME280;6669;42.678;23.332;2022-10-30T06:33:05;95223.09;;;8.29;100.00
13209;BME280;6669;42.678;23.332;2022-10-30T06:35:33;95229.31;;;8.36;100.00
13209;BME280;6669;42.678;23.332;2022-10-30T06:38:03;95233.13;;;8.42;100.00
13209;BME280;6669;42.678;23.332;2022-10-30T06:40:31;95236.81;;;8.49;100.00
13209;BME280;6669;42.678;23.332;2022-10-30T06:42:59;95229.25;;;8.56;100.00
13209;BME280;6669;42.678;23.332;2022-10-30T06:45:27;95233.56;;;8.65;100.00
13209;BME280;6669;42.678;23.332;2022-10-30T06:47:55;95230.69;;;8.68;100.00
13209;BME280;6669;42.678;23.332;2022-10-30T06:50:24;95235.66;;;8.79;100.00
13209;BME280;6669;42.678;23.332;2022-10-30T06:52:52;95242.06;;;8.85;100.00
13209;BME280;6669;42.678;23.332;2022-10-30T06:55:22;95254.72;;;8.88;100.00
13209;BME280;6669;42.678;23.332;2022-10-30T06:57:54;95245.09;;;8.98;100.00
13209;BME280;6669;42.678;23.332;2022-10-30T07:00:23;95238.16;;;8.99;100.00
13209;BME280;6669;42.678;23.332;2022-10-30T07:02:55;95247.47;;;9.10;100.00
13209;BME280;6669;42.678;23.332;2022-10-30T07:05:24;95250.16;;;9.18;100.00
13209;BME280;6669;42.678;23.332;2022-10-30T07:07:55;95246.03;;;9.25;100.00
13209;BME280;6669;42.678;23.332;2022-10-30T07:10:24;95258.16;;;9.25;100.00
13209;BME280;6669;42.678;23.332;2022-10-30T07:12:53;95260.31;;;9.29;100.00
13209;BME280;6669;42.678;23.332;2022-10-30T07:15:22;95262.38;;;9.44;100.00
13209;BME280;6669;42.678;23.332;2022-10-30T07:17:57;95250.97;;;9.55;100.00
13209;BME280;6669;42.678;23.332;2022-10-30T07:20:27;95242.28;;;9.64;100.00
13209;BME280;6669;42.678;23.332;2022-10-30T07:22:55;95250.88;;;9.82;100.00
13209;BME280;6669;42.678;23.332;2022-10-30T07:25:25;95246.38;;;9.93;100.00
13209;BME280;6669;42.678;23.332;2022-10-30T07:27:54;95248.88;;;10.03;100.00
13209;BME280;6669;42.678;23.332;2022-10-30T07:30:24;95238.69;;;10.09;100.00
13209;BME280;6669;42.678;23.332;2022-10-30T07:32:57;95239.41;;;10.20;100.00
13209;BME280;6669;42.678;23.332;2022-10-30T07:35:27;95234.91;;;10.30;100.00
13209;BME280;6669;42.678;23.332;2022-10-30T07:37:55;95235.13;;;10.37;100.00
13209;BME280;6669;42.678;23.332;2022-10-30T07:40:30;95252.09;;;10.49;100.00
13209;BME280;6669;42.678;23.332;2022-10-30T07:43:00;95247.41;;;10.61;100.00
13209;BME280;6669;42.678;23.332;2022-10-30T07:45:29;95241.91;;;10.64;100.00
13209;BME280;6669;42.678;23.332;2022-10-30T07:47:58;95248.47;;;10.85;100.00
13209;BME280;6669;42.678;23.332;2022-10-30T07:50:26;95230.28;;;10.93;100.00
13209;BME280;6669;42.678;23.332;2022-10-30T07:52:54;95225.59;;;11.13;100.00
13209;BME280;6669;42.678;23.332;2022-10-30T07:55:22;95231.81;;;11.20;100.00
13209;BME280;6669;42.678;23.332;2022-10-30T07:57:51;95218.31;;;11.33;100.00
13209;BME280;6669;42.678;23.332;2022-10-30T08:00:19;95211.97;;;11.44;100.00
13209;BME280;6669;42.678;23.332;2022-10-30T08:02:48;95216.69;;;11.65;100.00
13209;BME280;6669;42.678;23.332;2022-10-30T08:05:17;95202.34;;;11.69;100.00
13209;BME280;6669;42.678;23.332;2022-10-30T08:07:46;95213.06;;;11.91;100.00
13209;BME280;6669;42.678;23.332;2022-10-30T08:10:14;95203.31;;;12.01;100.00
13209;BME280;6669;42.678;23.332;2022-10-30T08:12:42;95208.47;;;12.18;100.00
13209;BME280;6669;42.678;23.332;2022-10-30T08:15:13;95211.53;;;12.38;100.00
13209;BME280;6669;42.678;23.332;2022-10-30T08:17:42;95212.97;;;12.49;100.00
13209;BME280;6669;42.678;23.332;2022-10-30T08:20:11;95210.63;;;12.62;100.00
13209;BME280;6669;42.678;23.332;2022-10-30T08:22:44;95213.03;;;12.64;100.00
13209;BME280;6669;42.678;23.332;2022-10-30T08:25:12;95181.25;;;12.68;100.00
13209;BME280;6669;42.678;23.332;2022-10-30T08:27:49;95204.28;;;12.88;100.00
13209;BME280;6669;42.678;23.332;2022-10-30T08:30:19;95211.41;;;13.02;100.00
13209;BME280;6669;42.678;23.332;2022-10-30T08:32:47;95213.72;;;13.20;100.00
13209;BME280;6669;42.678;23.332;2022-10-30T08:35:15;95207.44;;;13.30;100.00
13209;BME280;6669;42.678;23.332;2022-10-30T08:37:45;95214.09;;;13.40;100.00
13209;BME280;6669;42.678;23.332;2022-10-30T08:40:13;95217.09;;;13.52;100.00
13209;BME280;6669;42.678;23.332;2022-10-30T08:42:41;95221.28;;;13.62;100.00
13209;BME280;6669;42.678;23.332;2022-10-30T08:45:09;95217.16;;;13.67;100.00
13209;BME280;6669;42.678;23.332;2022-10-30T08:47:39;95207.00;;;13.72;100.00
13209;BME280;6669;42.678;23.332;2022-10-30T08:50:07;95216.47;;;13.88;100.00
13209;BME280;6669;42.678;23.332;2022-10-30T08:52:35;95215.88;;;14.01;100.00
13209;BME280;6669;42.678;23.332;2022-10-30T08:55:28;95217.47;;;14.02;100.00
13209;BME280;6669;42.678;23.332;2022-10-30T08:58:10;95206.84;;;14.19;100.00
13209;BME280;6669;42.678;23.332;2022-10-30T09:00:41;95208.13;;;14.38;100.00
13209;BME280;6669;42.678;23.332;2022-10-30T09:03:11;95202.63;;;14.48;100.00
13209;BME280;6669;42.678;23.332;2022-10-30T09:05:40;95196.84;;;14.52;100.00
13209;BME280;6669;42.678;23.332;2022-10-30T09:08:09;95194.59;;;14.64;100.00
13209;BME280;6669;42.678;23.332;2022-10-30T09:10:38;95198.00;;;14.80;100.00
13209;BME280;6669;42.678;23.332;2022-10-30T09:13:08;95189.00;;;15.04;100.00
13209;BME280;6669;42.678;23.332;2022-10-30T09:15:36;95195.13;;;15.55;100.00
13209;BME280;6669;42.678;23.332;2022-10-30T09:18:05;95191.13;;;16.09;100.00
13209;BME280;6669;42.678;23.332;2022-10-30T09:20:50;95195.56;;;16.92;100.00
13209;BME280;6669;42.678;23.332;2022-10-30T09:23:18;95192.06;;;17.53;100.00
13209;BME280;6669;42.678;23.332;2022-10-30T09:25:47;95199.75;;;18.08;100.00
13209;BME280;6669;42.678;23.332;2022-10-30T09:28:17;95194.25;;;18.37;100.00
13209;BME280;6669;42.678;23.332;2022-10-30T09:30:48;95194.38;;;18.62;100.00
13209;BME280;6669;42.678;23.332;2022-10-30T09:33:19;95195.88;;;18.97;100.00
13209;BME280;6669;42.678;23.332;2022-10-30T09:36:01;95178.09;;;19.24;100.00
13209;BME280;6669;42.678;23.332;2022-10-30T09:38:57;95187.84;;;19.74;100.00
13209;BME280;6669;42.678;23.332;2022-10-30T09:42:09;95178.84;;;20.14;100.00
13209;BME280;6669;42.678;23.332;2022-10-30T09:45:10;95172.88;;;20.18;100.00
13209;BME280;6669;42.678;23.332;2022-10-30T09:48:07;95155.88;;;20.14;100.00
13209;BME280;6669;42.678;23.332;2022-10-30T09:50:41;95153.66;;;20.67;95.75
13209;BME280;6669;42.678;23.332;2022-10-30T09:53:21;95163.78;;;21.19;90.88
13209;BME280;6669;42.678;23.332;2022-10-30T09:56:01;95143.47;;;21.19;91.55
13209;BME280;6669;42.678;23.332;2022-10-30T09:58:35;95152.66;;;21.29;92.84
13209;BME280;6669;42.678;23.332;2022-10-30T10:01:12;95146.66;;;21.21;92.50
13209;BME280;6669;42.678;23.332;2022-10-30T10:03:54;95137.19;;;21.44;91.45
13209;BME280;6669;42.678;23.332;2022-10-30T10:06:25;95141.50;;;21.69;88.87
13209;BME280;6669;42.678;23.332;2022-10-30T10:09:00;95130.63;;;21.47;90.41
13209;BME280;6669;42.678;23.332;2022-10-30T10:11:35;95132.75;;;21.68;88.99
13209;BME280;6669;42.678;23.332;2022-10-30T10:14:08;95123.66;;;21.64;88.16
13209;BME280;6669;42.678;23.332;2022-10-30T10:16:42;95123.09;;;21.74;85.81
13209;BME280;6669;42.678;23.332;2022-10-30T10:19:17;95119.06;;;22.07;83.44
13209;BME280;6669;42.678;23.332;2022-10-30T10:21:54;95104.56;;;22.10;83.13
13209;BME280;6669;42.678;23.332;2022-10-30T10:24:26;95097.63;;;22.32;82.24
13209;BME280;6669;42.678;23.332;2022-10-30T10:27:09;95104.88;;;22.37;82.35
13209;BME280;6669;42.678;23.332;2022-10-30T10:29:51;95090.91;;;22.30;81.04
13209;BME280;6669;42.678;23.332;2022-10-30T10:32:39;95095.59;;;22.11;83.45
13209;BME280;6669;42.678;23.332;2022-10-30T10:35:23;95093.84;;;22.40;78.20
13209;BME280;6669;42.678;23.332;2022-10-30T10:38:03;95084.69;;;22.77;77.80
13209;BME280;6669;42.678;23.332;2022-10-30T10:40:47;95089.56;;;22.68;78.70
13209;BME280;6669;42.678;23.332;2022-10-30T10:43:30;95071.91;;;23.02;75.70
13209;BME280;6669;42.678;23.332;2022-10-30T10:46:16;95080.41;;;23.16;75.09
13209;BME280;6669;42.678;23.332;2022-10-30T10:48:57;95073.00;;;23.36;72.63
13209;BME280;6669;42.678;23.332;2022-10-30T10:51:31;95068.66;;;23.46;69.12
13209;BME280;6669;42.678;23.332;2022-10-30T10:54:03;95065.22;;;23.46;67.12
13209;BME280;6669;42.678;23.332;2022-10-30T10:56:39;95054.56;;;23.63;65.81
13209;BME280;6669;42.678;23.332;2022-10-30T10:59:15;95061.97;;;23.61;67.09
13209;BME280;6669;42.678;23.332;2022-10-30T11:01:54;95057.94;;;23.58;66.51
13209;BME280;6669;42.678;23.332;2022-10-30T11:04:29;95048.78;;;24.05;64.74
13209;BME280;6669;42.678;23.332;2022-10-30T11:07:17;95045.88;;;24.51;62.90
13209;BME280;6669;42.678;23.332;2022-10-30T11:09:47;95041.44;;;24.84;61.87
13209;BME280;6669;42.678;23.332;2022-10-30T11:12:22;95035.59;;;25.14;61.55
13209;BME280;6669;42.678;23.332;2022-10-30T11:14:57;95039.72;;;25.33;59.01
13209;BME280;6669;42.678;23.332;2022-10-30T11:17:29;95035.25;;;25.06;58.02
13209;BME280;6669;42.678;23.332;2022-10-30T11:20:04;95032.31;;;24.75;58.45
13209;BME280;6669;42.678;23.332;2022-10-30T11:22:42;95031.41;;;24.64;58.53
13209;BME280;6669;42.678;23.332;2022-10-30T11:25:20;95018.03;;;24.59;58.93
13209;BME280;6669;42.678;23.332;2022-10-30T11:27:59;95021.66;;;25.02;57.58
13209;BME280;6669;42.678;23.332;2022-10-30T11:30:27;95016.13;;;25.41;57.67
13209;BME280;6669;42.678;23.332;2022-10-30T11:32:57;95004.38;;;25.75;57.42
13209;BME280;6669;42.678;23.332;2022-10-30T11:35:25;95010.16;;;26.15;56.21
13209;BME280;6669;42.678;23.332;2022-10-30T11:38:11;95001.66;;;26.23;56.19
13209;BME280;6669;42.678;23.332;2022-10-30T11:40:45;95012.81;;;26.15;54.80
13209;BME280;6669;42.678;23.332;2022-10-30T11:43:19;95002.25;;;26.40;54.41
13209;BME280;6669;42.678;23.332;2022-10-30T11:45:49;94997.72;;;26.41;54.74
13209;BME280;6669;42.678;23.332;2022-10-30T11:48:21;94991.88;;;26.54;53.64
13209;BME280;6669;42.678;23.332;2022-10-30T11:50:57;94992.66;;;26.60;53.59
13209;BME280;6669;42.678;23.332;2022-10-30T11:53:28;94991.56;;;26.35;53.56
13209;BME280;6669;42.678;23.332;2022-10-30T11:56:00;94980.19;;;26.76;53.86
13209;BME280;6669;42.678;23.332;2022-10-30T11:58:33;94978.88;;;26.94;51.87
13209;BME280;6669;42.678;23.332;2022-10-30T12:01:05;94989.28;;;27.21;51.29
13209;BME280;6669;42.678;23.332;2022-10-30T12:03:36;94985.22;;;26.57;51.56
13209;BME280;6669;42.678;23.332;2022-10-30T12:06:09;94973.75;;;26.51;50.98
13209;BME280;6669;42.678;23.332;2022-10-30T12:08:57;94975.84;;;26.29;50.90
13209;BME280;6669;42.678;23.332;2022-10-30T12:11:27;94983.03;;;26.38;50.92
13209;BME280;6669;42.678;23.332;2022-10-30T12:13:58;94984.13;;;26.48;51.27
13209;BME280;6669;42.678;23.332;2022-10-30T12:16:27;94978.84;;;26.68;51.30
13209;BME280;6669;42.678;23.332;2022-10-30T12:19:00;94972.19;;;26.86;50.85
13209;BME280;6669;42.678;23.332;2022-10-30T12:21:33;94970.34;;;27.02;50.17
13209;BME280;6669;42.678;23.332;2022-10-30T12:24:04;94966.06;;;26.70;49.48
13209;BME280;6669;42.678;23.332;2022-10-30T12:26:35;94961.25;;;26.78;50.01
13209;BME280;6669;42.678;23.332;2022-10-30T12:29:10;94950.06;;;27.12;49.85
13209;BME280;6669;42.678;23.332;2022-10-30T12:31:47;94951.66;;;27.13;49.07
13209;BME280;6669;42.678;23.332;2022-10-30T12:34:28;94942.84;;;26.97;49.20
13209;BME280;6669;42.678;23.332;2022-10-30T12:37:04;94950.56;;;26.57;50.27
13209;BME280;6669;42.678;23.332;2022-10-30T12:39:44;94952.16;;;26.68;50.50
13209;BME280;6669;42.678;23.332;2022-10-30T12:42:16;94945.50;;;26.50;51.04
13209;BME280;6669;42.678;23.332;2022-10-30T12:44:50;94922.00;;;26.42;50.29
13209;BME280;6669;42.678;23.332;2022-10-30T12:47:27;94948.16;;;26.45;50.81
13209;BME280;6669;42.678;23.332;2022-10-30T12:50:00;94942.28;;;26.58;50.95
13209;BME280;6669;42.678;23.332;2022-10-30T12:52:39;94947.09;;;26.46;51.06
13209;BME280;6669;42.678;23.332;2022-10-30T12:55:16;94938.56;;;26.59;51.06
13209;BME280;6669;42.678;23.332;2022-10-30T12:57:51;94946.09;;;26.73;51.04
13209;BME280;6669;42.678;23.332;2022-10-30T13:00:27;94940.47;;;27.00;50.08
13209;BME280;6669;42.678;23.332;2022-10-30T13:02:58;94925.47;;;27.51;50.07
13209;BME280;6669;42.678;23.332;2022-10-30T13:05:32;94925.22;;;28.13;49.03
13209;BME280;6669;42.678;23.332;2022-10-30T13:08:12;94923.66;;;27.96;47.63
13209;BME280;6669;42.678;23.332;2022-10-30T13:10:44;94924.91;;;27.54;48.18
13209;BME280;6669;42.678;23.332;2022-10-30T13:13:15;94922.22;;;27.59;47.56
13209;BME280;6669;42.678;23.332;2022-10-30T13:15:49;94926.78;;;27.59;47.85
13209;BME280;6669;42.678;23.332;2022-10-30T13:18:19;94917.41;;;27.66;47.05
13209;BME280;6669;42.678;23.332;2022-10-30T13:20:57;94912.06;;;27.61;47.37